sensor_id;sensor_type;location;lat;lon;timestamp;P1;durP1;ratioP1;P2;durP2;ratioP2
14592;SDS011;7383;52.354;9.756;2022-11-09T00:00:39;1.48;;;1.38;;
14592;SDS011;7383;52.354;9.756;2022-11-09T00:03:06;2.28;;;1.50;;
14592;SDS011;7383;52.354;9.756;2022-11-09T00:05:33;1.70;;;1.60;;
14592;SDS011;7383;52.354;9.756;2022-11-09T00:08:01;1.95;;;1.58;;
14592;SDS011;7383;52.354;9.756;2022-11-09T00:10:30;1.13;;;1.13;;
14592;SDS011;7383;52.354;9.756;2022-11-09T00:12:57;1.58;;;1.50;;
14592;SDS011;7383;52.354;9.756;2022-11-09T00:15:24;1.58;;;1.48;;
14592;SDS011;7383;52.354;9.756;2022-11-09T00:17:51;1.50;;;1.40;;
14592;SDS011;7383;52.354;9.756;2022-11-09T00:20:17;1.52;;;1.42;;
14592;SDS011;7383;52.354;9.756;2022-11-09T00:22:45;1.50;;;1.40;;
14592;SDS011;7383;52.354;9.756;2022-11-09T00:25:14;1.65;;;1.30;;
14592;SDS011;7383;52.354;9.756;2022-11-09T00:27:41;1.35;;;1.25;;
14592;SDS011;7383;52.354;9.756;2022-11-09T00:30:08;1.42;;;1.40;;
14592;SDS011;7383;52.354;9.756;2022-11-09T00:32:36;1.38;;;1.27;;
14592;SDS011;7383;52.354;9.756;2022-11-09T00:35:02;1.20;;;1.20;;
14592;SDS011;7383;52.354;9.756;2022-11-09T00:37:29;1.50;;;1.40;;
14592;SDS011;7383;52.354;9.756;2022-11-09T00:39:56;1.30;;;1.20;;
14592;SDS011;7383;52.354;9.756;2022-11-09T00:42:24;1.50;;;1.40;;
14592;SDS011;7383;52.354;9.756;2022-11-09T00:44:51;1.83;;;1.30;;
14592;SDS011;7383;52.354;9.756;2022-11-09T00:47:17;1.48;;;1.38;;
14592;SDS011;7383;52.354;9.756;2022-11-09T00:49:44;1.30;;;1.20;;
14592;SDS011;7383;52.354;9.756;2022-11-09T00:52:11;1.13;;;1.13;;
14592;SDS011;7383;52.354;9.756;2022-11-09T00:54:37;1.42;;;1.33;;
14592;SDS011;7383;52.354;9.756;2022-11-09T00:57:04;1.25;;;1.20;;
14592;SDS011;7383;52.354;9.756;2022-11-09T00:59:32;1.25;;;1.23;;
14592;SDS011;7383;52.354;9.756;2022-11-09T01:01:58;1.40;;;1.30;;
14592;SDS011;7383;52.354;9.756;2022-11-09T01:04:25;1.30;;;1.20;;
14592;SDS011;7383;52.354;9.756;2022-11-09T01:06:51;1.42;;;1.33;;
14592;SDS011;7383;52.354;9.756;2022-11-09T01:09:17;1.40;;;1.30;;
14592;SDS011;7383;52.354;9.756;2022-11-09T01:11:44;1.42;;;1.33;;
14592;SDS011;7383;52.354;9.756;2022-11-09T01:14:10;1.45;;;1.35;;
14592;SDS011;7383;52.354;9.756;2022-11-09T01:16:38;1.77;;;1.52;;
14592;SDS011;7383;52.354;9.756;2022-11-09T01:19:05;1.50;;;1.40;;
14592;SDS011;7383;52.354;9.756;2022-11-09T01:21:31;1.23;;;1.23;;
14592;SDS011;7383;52.354;9.756;2022-11-09T01:23:58;1.20;;;1.10;;
14592;SDS011;7383;52.354;9.756;2022-11-09T01:26:25;1.92;;;0.90;;
14592;SDS011;7383;52.354;9.756;2022-11-09T01:28:52;1.48;;;1.38;;
14592;SDS011;7383;52.354;9.756;2022-11-09T01:31:19;1.55;;;1.25;;
14592;SDS011;7383;52.354;9.756;2022-11-09T01:33:48;1.50;;;1.40;;
14592;SDS011;7383;52.354;9.756;2022-11-09T01:36:15;1.25;;;1.15;;
14592;SDS011;7383;52.354;9.756;2022-11-09T01:38:44;1.23;;;1.13;;
14592;SDS011;7383;52.354;9.756;2022-11-09T01:41:11;1.55;;;1.27;;
14592;SDS011;7383;52.354;9.756;2022-11-09T01:43:40;1.83;;;1.55;;
14592;SDS011;7383;52.354;9.756;2022-11-09T01:46:10;1.25;;;1.25;;
14592;SDS011;7383;52.354;9.756;2022-11-09T01:48:43;1.38;;;1.27;;
14592;SDS011;7383;52.354;9.756;2022-11-09T01:51:14;0.90;;;0.90;;
14592;SDS011;7383;52.354;9.756;2022-11-09T01:53:44;1.58;;;1.20;;
14592;SDS011;7383;52.354;9.756;2022-11-09T01:56:15;1.55;;;1.45;;
14592;SDS011;7383;52.354;9.756;2022-11-09T01:58:44;1.60;;;1.50;;
14592;SDS011;7383;52.354;9.756;2022-11-09T02:01:14;1.15;;;1.05;;
14592;SDS011;7383;52.354;9.756;2022-11-09T02:03:43;1.30;;;1.30;;
14592;SDS011;7383;52.354;9.756;2022-11-09T02:06:15;1.50;;;1.40;;
14592;SDS011;7383;52.354;9.756;2022-11-09T02:08:44;1.35;;;1.25;;
14592;SDS011;7383;52.354;9.756;2022-11-09T02:11:13;1.30;;;1.30;;
14592;SDS011;7383;52.354;9.756;2022-11-09T02:13:45;1.50;;;1.40;;
14592;SDS011;7383;52.354;9.756;2022-11-09T02:16:14;1.30;;;1.30;;
14592;SDS011;7383;52.354;9.756;2022-11-09T02:18:43;1.30;;;1.30;;
14592;SDS011;7383;52.354;9.756;2022-11-09T02:21:16;1.50;;;1.40;;
14592;SDS011;7383;52.354;9.756;2022-11-09T02:23:43;1.25;;;1.15;;
14592;SDS011;7383;52.354;9.756;2022-11-09T02:26:12;1.30;;;1.20;;
14592;SDS011;7383;52.354;9.756;2022-11-09T02:28:42;1.50;;;1.40;;
14592;SDS011;7383;52.354;9.756;2022-11-09T02:31:09;1.20;;;1.20;;
14592;SDS011;7383;52.354;9.756;2022-11-09T02:33:41;1.50;;;1.40;;
14592;SDS011;7383;52.354;9.756;2022-11-09T02:36:08;1.27;;;1.10;;
14592;SDS011;7383;52.354;9.756;2022-11-09T02:38:36;1.20;;;1.10;;
14592;SDS011;7383;52.354;9.756;2022-11-09T02:41:03;1.20;;;1.20;;
14592;SDS011;7383;52.354;9.756;2022-11-09T02:43:29;1.13;;;1.13;;
14592;SDS011;7383;52.354;9.756;2022-11-09T02:45:56;1.55;;;1.05;;
14592;SDS011;7383;52.354;9.756;2022-11-09T02:48:23;1.50;;;1.40;;
14592;SDS011;7383;52.354;9.756;2022-11-09T02:50:49;1.30;;;1.20;;
14592;SDS011;7383;52.354;9.756;2022-11-09T02:53:16;1.23;;;1.20;;
14592;SDS011;7383;52.354;9.756;2022-11-09T02:55:43;1.38;;;1.38;;
14592;SDS011;7383;52.354;9.756;2022-11-09T02:58:10;1.35;;;1.27;;
14592;SDS011;7383;52.354;9.756;2022-11-09T03:00:36;1.52;;;1.42;;
14592;SDS011;7383;52.354;9.756;2022-11-09T03:03:03;1.60;;;1.50;;
14592;SDS011;7383;52.354;9.756;2022-11-09T03:05:30;1.65;;;1.38;;
14592;SDS011;7383;52.354;9.756;2022-11-09T03:07:57;1.38;;;1.33;;
14592;SDS011;7383;52.354;9.756;2022-11-09T03:10:26;1.27;;;1.17;;
14592;SDS011;7383;52.354;9.756;2022-11-09T03:12:54;1.40;;;1.30;;
14592;SDS011;7383;52.354;9.756;2022-11-09T03:15:20;1.50;;;1.30;;
14592;SDS011;7383;52.354;9.756;2022-11-09T03:17:47;1.42;;;1.33;;
14592;SDS011;7383;52.354;9.756;2022-11-09T03:20:13;1.40;;;1.40;;
14592;SDS011;7383;52.354;9.756;2022-11-09T03:22:40;1.63;;;1.52;;
14592;SDS011;7383;52.354;9.756;2022-11-09T03:25:07;1.30;;;1.30;;
14592;SDS011;7383;52.354;9.756;2022-11-09T03:27:34;1.33;;;1.23;;
14592;SDS011;7383;52.354;9.756;2022-11-09T03:30:02;1.50;;;1.40;;
14592;SDS011;7383;52.354;9.756;2022-11-09T03:32:29;1.40;;;1.30;;
14592;SDS011;7383;52.354;9.756;2022-11-09T03:34:55;1.13;;;1.13;;
14592;SDS011;7383;52.354;9.756;2022-11-09T03:37:22;2.50;;;1.30;;
14592;SDS011;7383;52.354;9.756;2022-11-09T03:39:48;1.20;;;1.20;;
14592;SDS011;7383;52.354;9.756;2022-11-09T03:42:15;1.48;;;1.10;;
14592;SDS011;7383;52.354;9.756;2022-11-09T03:44:41;1.08;;;1.08;;
14592;SDS011;7383;52.354;9.756;2022-11-09T03:47:09;1.40;;;1.30;;
14592;SDS011;7383;52.354;9.756;2022-11-09T03:49:35;1.20;;;1.17;;
14592;SDS011;7383;52.354;9.756;2022-11-09T03:52:02;1.10;;;1.10;;
14592;SDS011;7383;52.354;9.756;2022-11-09T03:54:28;1.30;;;1.20;;
14592;SDS011;7383;52.354;9.756;2022-11-09T03:56:55;1.30;;;1.20;;
14592;SDS011;7383;52.354;9.756;2022-11-09T03:59:21;1.13;;;1.10;;
14592;SDS011;7383;52.354;9.756;2022-11-09T04:01:48;1.38;;;1.27;;
14592;SDS011;7383;52.354;9.756;2022-11-09T04:04:16;1.30;;;1.20;;
14592;SDS011;7383;52.354;9.756;2022-11-09T04:06:42;1.40;;;1.30;;
14592;SDS011;7383;52.354;9.756;2022-11-09T04:09:09;1.20;;;1.20;;
14592;SDS011;7383;52.354;9.756;2022-11-09T04:11:35;1.17;;;1.17;;
14592;SDS011;7383;52.354;9.756;2022-11-09T04:14:02;1.48;;;1.00;;
14592;SDS011;7383;52.354;9.756;2022-11-09T04:16:29;1.20;;;1.15;;
14592;SDS011;7383;52.354;9.756;2022-11-09T04:18:55;1.40;;;1.30;;
14592;SDS011;7383;52.354;9.756;2022-11-09T04:21:23;0.90;;;0.90;;
14592;SDS011;7383;52.354;9.756;2022-11-09T04:23:49;1.30;;;1.20;;
14592;SDS011;7383;52.354;9.756;2022-11-09T04:26:16;1.52;;;1.35;;
14592;SDS011;7383;52.354;9.756;2022-11-09T04:28:42;1.42;;;1.17;;
14592;SDS011;7383;52.354;9.756;2022-11-09T04:31:09;1.27;;;1.20;;
14592;SDS011;7383;52.354;9.756;2022-11-09T04:33:35;1.20;;;1.10;;
14592;SDS011;7383;52.354;9.756;2022-11-09T04:36:02;1.10;;;1.00;;
14592;SDS011;7383;52.354;9.756;2022-11-09T04:38:30;1.55;;;1.17;;
14592;SDS011;7383;52.354;9.756;2022-11-09T04:41:01;1.48;;;1.38;;
14592;SDS011;7383;52.354;9.756;2022-11-09T04:43:28;1.30;;;1.20;;
14592;SDS011;7383;52.354;9.756;2022-11-09T04:45:57;1.70;;;1.60;;
14592;SDS011;7383;52.354;9.756;2022-11-09T04:48:24;1.48;;;1.38;;
14592;SDS011;7383;52.354;9.756;2022-11-09T04:50:51;0.95;;;0.95;;
14592;SDS011;7383;52.354;9.756;2022-11-09T04:53:17;1.52;;;1.27;;
14592;SDS011;7383;52.354;9.756;2022-11-09T04:55:45;1.33;;;1.23;;
14592;SDS011;7383;52.354;9.756;2022-11-09T04:58:11;1.10;;;1.10;;
14592;SDS011;7383;52.354;9.756;2022-11-09T05:00:38;0.98;;;0.98;;
14592;SDS011;7383;52.354;9.756;2022-11-09T05:03:05;0.90;;;0.90;;
14592;SDS011;7383;52.354;9.756;2022-11-09T05:05:32;1.10;;;1.00;;
14592;SDS011;7383;52.354;9.756;2022-11-09T05:07:59;1.02;;;1.02;;
14592;SDS011;7383;52.354;9.756;2022-11-09T05:10:25;1.50;;;1.40;;
14592;SDS011;7383;52.354;9.756;2022-11-09T05:12:57;1.10;;;1.00;;
14592;SDS011;7383;52.354;9.756;2022-11-09T05:15:24;1.40;;;1.30;;
14592;SDS011;7383;52.354;9.756;2022-11-09T05:17:51;1.15;;;1.15;;
14592;SDS011;7383;52.354;9.756;2022-11-09T05:20:17;0.90;;;0.90;;
14592;SDS011;7383;52.354;9.756;2022-11-09T05:22:44;1.23;;;1.13;;
14592;SDS011;7383;52.354;9.756;2022-11-09T05:25:28;1.63;;;1.40;;
14592;SDS011;7383;52.354;9.756;2022-11-09T05:27:54;1.40;;;1.27;;
14592;SDS011;7383;52.354;9.756;2022-11-09T05:30:22;1.48;;;1.08;;
14592;SDS011;7383;52.354;9.756;2022-11-09T05:32:49;1.30;;;1.20;;
14592;SDS011;7383;52.354;9.756;2022-11-09T05:35:15;1.58;;;1.27;;
14592;SDS011;7383;52.354;9.756;2022-11-09T05:37:44;1.95;;;1.45;;
14592;SDS011;7383;52.354;9.756;2022-11-09T05:40:12;1.27;;;1.17;;
14592;SDS011;7383;52.354;9.756;2022-11-09T05:42:40;1.10;;;1.00;;
14592;SDS011;7383;52.354;9.756;2022-11-09T05:45:06;1.50;;;1.40;;
14592;SDS011;7383;52.354;9.756;2022-11-09T05:47:37;1.30;;;1.20;;
14592;SDS011;7383;52.354;9.756;2022-11-09T05:50:04;1.52;;;1.42;;
14592;SDS011;7383;52.354;9.756;2022-11-09T05:52:33;1.58;;;1.48;;
14592;SDS011;7383;52.354;9.756;2022-11-09T05:55:00;1.67;;;1.58;;
14592;SDS011;7383;52.354;9.756;2022-11-09T05:57:27;1.65;;;1.48;;
14592;SDS011;7383;52.354;9.756;2022-11-09T05:59:54;1.52;;;1.35;;
14592;SDS011;7383;52.354;9.756;2022-11-09T06:02:20;1.50;;;1.40;;
14592;SDS011;7383;52.354;9.756;2022-11-09T06:04:48;1.45;;;1.20;;
14592;SDS011;7383;52.354;9.756;2022-11-09T06:07:15;1.13;;;1.13;;
14592;SDS011;7383;52.354;9.756;2022-11-09T06:09:41;1.83;;;1.38;;
14592;SDS011;7383;52.354;9.756;2022-11-09T06:12:08;1.17;;;1.17;;
14592;SDS011;7383;52.354;9.756;2022-11-09T06:14:34;1.33;;;1.30;;
14592;SDS011;7383;52.354;9.756;2022-11-09T06:17:01;1.63;;;1.30;;
14592;SDS011;7383;52.354;9.756;2022-11-09T06:19:27;1.15;;;1.15;;
14592;SDS011;7383;52.354;9.756;2022-11-09T06:21:55;1.42;;;1.33;;
14592;SDS011;7383;52.354;9.756;2022-11-09T06:24:22;1.95;;;1.40;;
14592;SDS011;7383;52.354;9.756;2022-11-09T06:26:48;1.20;;;1.10;;
14592;SDS011;7383;52.354;9.756;2022-11-09T06:29:15;1.10;;;1.10;;
14592;SDS011;7383;52.354;9.756;2022-11-09T06:31:41;1.38;;;1.30;;
14592;SDS011;7383;52.354;9.756;2022-11-09T06:34:08;2.20;;;1.67;;
14592;SDS011;7383;52.354;9.756;2022-11-09T06:36:35;1.42;;;1.40;;
14592;SDS011;7383;52.354;9.756;2022-11-09T06:39:03;1.67;;;1.58;;
14592;SDS011;7383;52.354;9.756;2022-11-09T06:41:30;1.35;;;1.23;;
14592;SDS011;7383;52.354;9.756;2022-11-09T06:43:57;1.92;;;1.58;;
14592;SDS011;7383;52.354;9.756;2022-11-09T06:46:23;1.48;;;1.40;;
14592;SDS011;7383;52.354;9.756;2022-11-09T06:48:53;1.90;;;1.80;;
14592;SDS011;7383;52.354;9.756;2022-11-09T06:51:19;2.05;;;1.63;;
14592;SDS011;7383;52.354;9.756;2022-11-09T06:53:45;1.95;;;1.70;;
14592;SDS011;7383;52.354;9.756;2022-11-09T06:56:13;1.95;;;1.70;;
14592;SDS011;7383;52.354;9.756;2022-11-09T06:58:40;2.85;;;1.73;;
14592;SDS011;7383;52.354;9.756;2022-11-09T07:01:07;1.83;;;1.70;;
14592;SDS011;7383;52.354;9.756;2022-11-09T07:03:34;1.88;;;1.70;;
14592;SDS011;7383;52.354;9.756;2022-11-09T07:06:03;1.83;;;1.73;;
14592;SDS011;7383;52.354;9.756;2022-11-09T07:08:30;1.35;;;1.25;;
14592;SDS011;7383;52.354;9.756;2022-11-09T07:11:01;1.80;;;1.70;;
14592;SDS011;7383;52.354;9.756;2022-11-09T07:13:29;2.45;;;1.70;;
14592;SDS011;7383;52.354;9.756;2022-11-09T07:15:56;1.65;;;1.55;;
14592;SDS011;7383;52.354;9.756;2022-11-09T07:18:23;1.67;;;1.58;;
14592;SDS011;7383;52.354;9.756;2022-11-09T07:20:49;1.48;;;1.48;;
14592;SDS011;7383;52.354;9.756;2022-11-09T07:23:16;1.70;;;1.60;;
14592;SDS011;7383;52.354;9.756;2022-11-09T07:25:43;1.52;;;1.42;;
14592;SDS011;7383;52.354;9.756;2022-11-09T07:28:10;1.70;;;1.60;;
14592;SDS011;7383;52.354;9.756;2022-11-09T07:30:38;1.75;;;1.65;;
14592;SDS011;7383;52.354;9.756;2022-11-09T07:33:10;1.33;;;1.20;;
14592;SDS011;7383;52.354;9.756;2022-11-09T07:35:38;1.70;;;1.60;;
14592;SDS011;7383;52.354;9.756;2022-11-09T07:38:04;1.88;;;1.63;;
14592;SDS011;7383;52.354;9.756;2022-11-09T07:40:31;1.35;;;1.25;;
14592;SDS011;7383;52.354;9.756;2022-11-09T07:43:00;1.67;;;1.58;;
14592;SDS011;7383;52.354;9.756;2022-11-09T07:45:28;1.50;;;1.40;;
14592;SDS011;7383;52.354;9.756;2022-11-09T07:47:57;1.80;;;1.70;;
14592;SDS011;7383;52.354;9.756;2022-11-09T07:50:26;1.83;;;1.40;;
14592;SDS011;7383;52.354;9.756;2022-11-09T07:52:55;1.63;;;1.52;;
14592;SDS011;7383;52.354;9.756;2022-11-09T07:55:24;1.98;;;1.48;;
14592;SDS011;7383;52.354;9.756;2022-11-09T07:57:55;1.58;;;1.45;;
14592;SDS011;7383;52.354;9.756;2022-11-09T08:00:22;1.83;;;1.40;;
14592;SDS011;7383;52.354;9.756;2022-11-09T08:02:50;1.52;;;1.42;;
14592;SDS011;7383;52.354;9.756;2022-11-09T08:05:18;2.55;;;1.35;;
14592;SDS011;7383;52.354;9.756;2022-11-09T08:07:54;1.42;;;1.23;;
14592;SDS011;7383;52.354;9.756;2022-11-09T08:10:30;1.63;;;1.50;;
14592;SDS011;7383;52.354;9.756;2022-11-09T08:12:59;2.08;;;1.70;;
14592;SDS011;7383;52.354;9.756;2022-11-09T08:15:27;1.63;;;1.40;;
14592;SDS011;7383;52.354;9.756;2022-11-09T08:17:53;2.60;;;1.83;;
14592;SDS011;7383;52.354;9.756;2022-11-09T08:20:26;1.60;;;1.50;;
14592;SDS011;7383;52.354;9.756;2022-11-09T08:22:52;2.10;;;1.50;;
14592;SDS011;7383;52.354;9.756;2022-11-09T08:25:19;1.40;;;1.30;;
14592;SDS011;7383;52.354;9.756;2022-11-09T08:27:45;1.70;;;1.45;;
14592;SDS011;7383;52.354;9.756;2022-11-09T08:30:13;1.48;;;1.30;;
14592;SDS011;7383;52.354;9.756;2022-11-09T08:32:43;1.40;;;1.30;;
14592;SDS011;7383;52.354;9.756;2022-11-09T08:35:10;1.50;;;1.40;;
14592;SDS011;7383;52.354;9.756;2022-11-09T08:37:42;2.17;;;1.40;;
14592;SDS011;7383;52.354;9.756;2022-11-09T08:40:10;1.40;;;1.30;;
14592;SDS011;7383;52.354;9.756;2022-11-09T08:42:37;1.10;;;1.10;;
14592;SDS011;7383;52.354;9.756;2022-11-09T08:45:04;1.40;;;1.30;;
14592;SDS011;7383;52.354;9.756;2022-11-09T08:47:31;1.58;;;1.48;;
14592;SDS011;7383;52.354;9.756;2022-11-09T08:49:58;1.20;;;1.10;;
14592;SDS011;7383;52.354;9.756;2022-11-09T08:52:25;1.75;;;1.20;;
14592;SDS011;7383;52.354;9.756;2022-11-09T08:54:53;1.20;;;1.20;;
14592;SDS011;7383;52.354;9.756;2022-11-09T08:57:19;1.27;;;1.23;;
14592;SDS011;7383;52.354;9.756;2022-11-09T08:59:46;1.42;;;1.40;;
14592;SDS011;7383;52.354;9.756;2022-11-09T09:02:12;1.77;;;1.38;;
14592;SDS011;7383;52.354;9.756;2022-11-09T09:04:39;1.55;;;1.13;;
14592;SDS011;7383;52.354;9.756;2022-11-09T09:07:06;1.45;;;1.35;;
14592;SDS011;7383;52.354;9.756;2022-11-09T09:09:33;2.05;;;1.35;;
14592;SDS011;7383;52.354;9.756;2022-11-09T09:12:03;1.60;;;1.40;;
14592;SDS011;7383;52.354;9.756;2022-11-09T09:14:29;1.42;;;1.30;;
14592;SDS011;7383;52.354;9.756;2022-11-09T09:16:56;1.30;;;1.20;;
14592;SDS011;7383;52.354;9.756;2022-11-09T09:19:22;1.90;;;1.27;;
14592;SDS011;7383;52.354;9.756;2022-11-09T09:21:49;0.93;;;0.93;;
14592;SDS011;7383;52.354;9.756;2022-11-09T09:24:15;1.08;;;1.08;;
14592;SDS011;7383;52.354;9.756;2022-11-09T09:26:42;1.20;;;1.10;;
14592;SDS011;7383;52.354;9.756;2022-11-09T09:29:10;0.90;;;0.90;;
14592;SDS011;7383;52.354;9.756;2022-11-09T09:31:37;1.20;;;1.10;;
14592;SDS011;7383;52.354;9.756;2022-11-09T09:34:04;1.33;;;1.23;;
14592;SDS011;7383;52.354;9.756;2022-11-09T09:36:30;1.27;;;1.20;;
14592;SDS011;7383;52.354;9.756;2022-11-09T09:38:59;0.80;;;0.80;;
14592;SDS011;7383;52.354;9.756;2022-11-09T09:41:26;1.25;;;0.88;;
14592;SDS011;7383;52.354;9.756;2022-11-09T09:43:56;0.93;;;0.93;;
14592;SDS011;7383;52.354;9.756;2022-11-09T09:46:29;1.20;;;1.10;;
14592;SDS011;7383;52.354;9.756;2022-11-09T09:49:00;1.02;;;1.00;;
14592;SDS011;7383;52.354;9.756;2022-11-09T09:51:33;1.08;;;1.08;;
14592;SDS011;7383;52.354;9.756;2022-11-09T09:54:06;1.38;;;1.00;;
14592;SDS011;7383;52.354;9.756;2022-11-09T09:56:40;1.10;;;1.10;;
14592;SDS011;7383;52.354;9.756;2022-11-09T09:59:11;1.15;;;1.15;;
14592;SDS011;7383;52.354;9.756;2022-11-09T10:01:46;0.80;;;0.80;;
14592;SDS011;7383;52.354;9.756;2022-11-09T10:04:14;1.95;;;0.95;;
14592;SDS011;7383;52.354;9.756;2022-11-09T10:06:46;0.93;;;0.80;;
14592;SDS011;7383;52.354;9.756;2022-11-09T10:09:26;1.45;;;0.90;;
14592;SDS011;7383;52.354;9.756;2022-11-09T10:12:02;0.80;;;0.80;;
14592;SDS011;7383;52.354;9.756;2022-11-09T10:14:48;1.30;;;1.00;;
14592;SDS011;7383;52.354;9.756;2022-11-09T10:17:30;1.45;;;0.90;;
14592;SDS011;7383;52.354;9.756;2022-11-09T10:20:08;0.93;;;0.70;;
14592;SDS011;7383;52.354;9.756;2022-11-09T10:22:45;1.13;;;0.98;;
14592;SDS011;7383;52.354;9.756;2022-11-09T10:25:22;0.70;;;0.70;;
14592;SDS011;7383;52.354;9.756;2022-11-09T10:27:51;1.20;;;1.08;;
14592;SDS011;7383;52.354;9.756;2022-11-09T10:30:21;1.15;;;1.00;;
14592;SDS011;7383;52.354;9.756;2022-11-09T10:32:52;1.70;;;0.82;;
14592;SDS011;7383;52.354;9.756;2022-11-09T10:35:21;1.42;;;0.73;;
14592;SDS011;7383;52.354;9.756;2022-11-09T10:37:53;1.92;;;0.88;;
14592;SDS011;7383;52.354;9.756;2022-11-09T10:40:21;1.27;;;0.93;;
14592;SDS011;7383;52.354;9.756;2022-11-09T10:42:52;2.30;;;0.80;;
14592;SDS011;7383;52.354;9.756;2022-11-09T10:45:24;1.65;;;1.00;;
14592;SDS011;7383;52.354;9.756;2022-11-09T10:47:56;0.95;;;0.70;;
14592;SDS011;7383;52.354;9.756;2022-11-09T10:50:27;0.93;;;0.73;;
14592;SDS011;7383;52.354;9.756;2022-11-09T10:53:07;1.52;;;0.70;;
14592;SDS011;7383;52.354;9.756;2022-11-09T10:55:36;1.02;;;0.70;;
14592;SDS011;7383;52.354;9.756;2022-11-09T10:58:10;1.45;;;0.70;;
14592;SDS011;7383;52.354;9.756;2022-11-09T11:00:53;1.00;;;0.77;;
14592;SDS011;7383;52.354;9.756;2022-11-09T11:03:25;1.10;;;0.90;;
14592;SDS011;7383;52.354;9.756;2022-11-09T11:05:55;3.47;;;1.10;;
14592;SDS011;7383;52.354;9.756;2022-11-09T11:08:25;1.75;;;0.98;;
14592;SDS011;7383;52.354;9.756;2022-11-09T11:11:19;1.67;;;0.93;;
14592;SDS011;7383;52.354;9.756;2022-11-09T11:13:49;1.63;;;0.90;;
14592;SDS011;7383;52.354;9.756;2022-11-09T11:16:23;0.50;;;0.50;;
14592;SDS011;7383;52.354;9.756;2022-11-09T11:18:54;1.38;;;0.88;;
14592;SDS011;7383;52.354;9.756;2022-11-09T11:21:22;0.93;;;0.50;;
14592;SDS011;7383;52.354;9.756;2022-11-09T11:24:03;1.30;;;0.60;;
14592;SDS011;7383;52.354;9.756;2022-11-09T11:26:39;1.33;;;0.70;;
14592;SDS011;7383;52.354;9.756;2022-11-09T11:29:18;1.02;;;1.02;;
14592;SDS011;7383;52.354;9.756;2022-11-09T11:31:53;1.48;;;0.90;;
14592;SDS011;7383;52.354;9.756;2022-11-09T11:34:21;2.00;;;1.10;;
14592;SDS011;7383;52.354;9.756;2022-11-09T11:36:50;0.82;;;0.82;;
14592;SDS011;7383;52.354;9.756;2022-11-09T11:39:32;0.95;;;0.85;;
14592;SDS011;7383;52.354;9.756;2022-11-09T11:42:20;0.73;;;0.73;;
14592;SDS011;7383;52.354;9.756;2022-11-09T11:45:02;1.77;;;0.90;;
14592;SDS011;7383;52.354;9.756;2022-11-09T11:47:41;0.90;;;0.90;;
14592;SDS011;7383;52.354;9.756;2022-11-09T11:50:23;1.02;;;0.90;;
14592;SDS011;7383;52.354;9.756;2022-11-09T11:52:58;1.45;;;0.73;;
14592;SDS011;7383;52.354;9.756;2022-11-09T11:55:42;0.88;;;0.88;;
14592;SDS011;7383;52.354;9.756;2022-11-09T11:58:22;0.75;;;0.60;;
14592;SDS011;7383;52.354;9.756;2022-11-09T12:01:05;1.45;;;0.98;;
14592;SDS011;7383;52.354;9.756;2022-11-09T12:03:49;1.13;;;0.95;;
14592;SDS011;7383;52.354;9.756;2022-11-09T12:06:30;1.92;;;0.88;;
14592;SDS011;7383;52.354;9.756;2022-11-09T12:09:15;0.95;;;0.60;;
14592;SDS011;7383;52.354;9.756;2022-11-09T12:11:56;1.08;;;0.70;;
14592;SDS011;7383;52.354;9.756;2022-11-09T12:14:34;1.45;;;1.20;;
14592;SDS011;7383;52.354;9.756;2022-11-09T12:17:12;0.95;;;0.73;;
14592;SDS011;7383;52.354;9.756;2022-11-09T12:20:00;0.70;;;0.70;;
14592;SDS011;7383;52.354;9.756;2022-11-09T12:22:46;1.02;;;0.80;;
14592;SDS011;7383;52.354;9.756;2022-11-09T12:25:23;0.77;;;0.50;;
14592;SDS011;7383;52.354;9.756;2022-11-09T12:28:00;1.38;;;0.70;;
14592;SDS011;7383;52.354;9.756;2022-11-09T12:30:44;1.02;;;0.60;;
14592;SDS011;7383;52.354;9.756;2022-11-09T12:33:20;0.70;;;0.65;;
14592;SDS011;7383;52.354;9.756;2022-11-09T12:35:54;0.57;;;0.57;;
14592;SDS011;7383;52.354;9.756;2022-11-09T12:38:27;0.82;;;0.55;;
14592;SDS011;7383;52.354;9.756;2022-11-09T12:40:58;0.52;;;0.40;;
14592;SDS011;7383;52.354;9.756;2022-11-09T12:43:30;0.60;;;0.50;;
14592;SDS011;7383;52.354;9.756;2022-11-09T12:46:04;0.82;;;0.65;;
14592;SDS011;7383;52.354;9.756;2022-11-09T12:48:38;2.17;;;1.10;;
14592;SDS011;7383;52.354;9.756;2022-11-09T12:51:55;1.08;;;0.85;;
14592;SDS011;7383;52.354;9.756;2022-11-09T12:55:17;0.50;;;0.50;;
14592;SDS011;7383;52.354;9.756;2022-11-09T12:58:28;0.52;;;0.52;;
14592;SDS011;7383;52.354;9.756;2022-11-09T13:00:53;1.58;;;0.70;;
14592;SDS011;7383;52.354;9.756;2022-11-09T13:03:22;1.52;;;0.80;;
14592;SDS011;7383;52.354;9.756;2022-11-09T13:06:16;0.68;;;0.68;;
14592;SDS011;7383;52.354;9.756;2022-11-09T13:08:57;0.75;;;0.65;;
14592;SDS011;7383;52.354;9.756;2022-11-09T13:14:33;0.82;;;0.70;;
14592;SDS011;7383;52.354;9.756;2022-11-09T13:20:47;1.23;;;0.95;;
14592;SDS011;7383;52.354;9.756;2022-11-09T13:23:28;1.20;;;0.80;;
14592;SDS011;7383;52.354;9.756;2022-11-09T13:25:57;1.02;;;0.70;;
14592;SDS011;7383;52.354;9.756;2022-11-09T13:28:43;1.10;;;0.65;;
14592;SDS011;7383;52.354;9.756;2022-11-09T13:34:38;0.90;;;0.65;;
14592;SDS011;7383;52.354;9.756;2022-11-09T13:43:12;0.55;;;0.55;;
14592;SDS011;7383;52.354;9.756;2022-11-09T13:45:41;0.90;;;0.70;;
14592;SDS011;7383;52.354;9.756;2022-11-09T13:48:22;0.82;;;0.65;;
14592;SDS011;7383;52.354;9.756;2022-11-09T13:50:54;0.80;;;0.70;;
14592;SDS011;7383;52.354;9.756;2022-11-09T13:53:26;0.80;;;0.80;;
14592;SDS011;7383;52.354;9.756;2022-11-09T13:55:54;1.23;;;0.80;;
14592;SDS011;7383;52.354;9.756;2022-11-09T13:58:22;0.60;;;0.60;;
14592;SDS011;7383;52.354;9.756;2022-11-09T14:00:52;1.23;;;0.80;;
14592;SDS011;7383;52.354;9.756;2022-11-09T14:03:20;0.68;;;0.68;;
14592;SDS011;7383;52.354;9.756;2022-11-09T14:05:50;0.75;;;0.60;;
14592;SDS011;7383;52.354;9.756;2022-11-09T14:08:20;0.90;;;0.63;;
14592;SDS011;7383;52.354;9.756;2022-11-09T14:10:55;1.60;;;0.80;;
14592;SDS011;7383;52.354;9.756;2022-11-09T14:13:39;1.02;;;0.50;;
14592;SDS011;7383;52.354;9.756;2022-11-09T14:16:17;0.90;;;0.60;;
14592;SDS011;7383;52.354;9.756;2022-11-09T14:18:56;1.15;;;0.80;;
14592;SDS011;7383;52.354;9.756;2022-11-09T14:21:39;1.08;;;0.88;;
14592;SDS011;7383;52.354;9.756;2022-11-09T14:24:13;1.23;;;0.75;;
14592;SDS011;7383;52.354;9.756;2022-11-09T14:26:58;0.90;;;0.57;;
14592;SDS011;7383;52.354;9.756;2022-11-09T14:29:26;1.25;;;0.75;;
14592;SDS011;7383;52.354;9.756;2022-11-09T14:31:57;1.67;;;0.90;;
14592;SDS011;7383;52.354;9.756;2022-11-09T14:34:25;0.90;;;0.80;;
14592;SDS011;7383;52.354;9.756;2022-11-09T14:36:52;1.02;;;0.60;;
14592;SDS011;7383;52.354;9.756;2022-11-09T14:39:22;1.45;;;0.80;;
14592;SDS011;7383;52.354;9.756;2022-11-09T14:41:52;1.35;;;0.98;;
14592;SDS011;7383;52.354;9.756;2022-11-09T14:44:19;1.25;;;1.10;;
14592;SDS011;7383;52.354;9.756;2022-11-09T14:46:51;1.30;;;0.90;;
14592;SDS011;7383;52.354;9.756;2022-11-09T14:49:18;1.25;;;0.80;;
14592;SDS011;7383;52.354;9.756;2022-11-09T14:51:47;1.92;;;0.80;;
14592;SDS011;7383;52.354;9.756;2022-11-09T14:54:14;0.82;;;0.70;;
14592;SDS011;7383;52.354;9.756;2022-11-09T14:56:42;0.93;;;0.75;;
14592;SDS011;7383;52.354;9.756;2022-11-09T14:59:11;0.80;;;0.60;;
14592;SDS011;7383;52.354;9.756;2022-11-09T15:01:40;1.05;;;0.77;;
14592;SDS011;7383;52.354;9.756;2022-11-09T15:04:22;1.00;;;0.80;;
14592;SDS011;7383;52.354;9.756;2022-11-09T15:06:52;1.35;;;0.75;;
14592;SDS011;7383;52.354;9.756;2022-11-09T15:09:21;1.15;;;0.98;;
14592;SDS011;7383;52.354;9.756;2022-11-09T15:11:52;1.00;;;0.70;;
14592;SDS011;7383;52.354;9.756;2022-11-09T15:14:24;1.00;;;0.88;;
14592;SDS011;7383;52.354;9.756;2022-11-09T15:16:56;1.85;;;0.73;;
14592;SDS011;7383;52.354;9.756;2022-11-09T15:19:27;1.48;;;1.10;;
14592;SDS011;7383;52.354;9.756;2022-11-09T15:21:57;1.17;;;1.00;;
14592;SDS011;7383;52.354;9.756;2022-11-09T15:24:25;0.75;;;0.75;;
14592;SDS011;7383;52.354;9.756;2022-11-09T15:26:53;1.33;;;0.60;;
14592;SDS011;7383;52.354;9.756;2022-11-09T15:32:11;1.67;;;0.80;;
14592;SDS011;7383;52.354;9.756;2022-11-09T15:34:41;1.27;;;0.70;;
14592;SDS011;7383;52.354;9.756;2022-11-09T15:37:21;1.08;;;0.70;;